sensor_id;sensor_type;location;lat;lon;timestamp;temperature;humidity
11093;DHT22;5600;50.864;6.102;2023-01-19T00:01:53;2.00;99.90
11093;DHT22;5600;50.864;6.102;2023-01-19T00:04:54;2.10;99.90
11093;DHT22;5600;50.864;6.102;2023-01-19T00:07:54;2.00;99.90
11093;DHT22;5600;50.864;6.102;2023-01-19T00:10:55;2.10;99.90
11093;DHT22;5600;50.864;6.102;2023-01-19T00:13:56;2.10;99.90
11093;DHT22;5600;50.864;6.102;2023-01-19T00:16:58;2.10;99.90
11093;DHT22;5600;50.864;6.102;2023-01-19T00:19:59;2.20;99.90
11093;DHT22;5600;50.864;6.102;2023-01-19T00:23:00;2.20;99.90
11093;DHT22;5600;50.864;6.102;2023-01-19T00:26:01;2.30;99.90
11093;DHT22;5600;50.864;6.102;2023-01-19T00:29:02;2.20;99.90
11093;DHT22;5600;50.864;6.102;2023-01-19T00:32:04;2.10;99.90
11093;DHT22;5600;50.864;6.102;2023-01-19T00:35:05;2.10;99.90
11093;DHT22;5600;50.864;6.102;2023-01-19T00:38:06;2.00;99.90
11093;DHT22;5600;50.864;6.102;2023-01-19T00:41:06;2.00;99.90
11093;DHT22;5600;50.864;6.102;2023-01-19T00:44:07;2.00;99.90
11093;DHT22;5600;50.864;6.102;2023-01-19T00:47:08;2.00;99.90
11093;DHT22;5600;50.864;6.102;2023-01-19T00:50:11;2.00;99.90
11093;DHT22;5600;50.864;6.102;2023-01-19T00:53:12;2.00;99.90
11093;DHT22;5600;50.864;6.102;2023-01-19T00:56:12;1.90;99.90
11093;DHT22;5600;50.864;6.102;2023-01-19T00:59:13;1.90;99.90
11093;DHT22;5600;50.864;6.102;2023-01-19T01:02:14;1.90;99.90
11093;DHT22;5600;50.864;6.102;2023-01-19T01:05:15;1.90;99.90
11093;DHT22;5600;50.864;6.102;2023-01-19T01:08:15;1.90;99.90
11093;DHT22;5600;50.864;6.102;2023-01-19T01:11:16;1.90;99.90
11093;DHT22;5600;50.864;6.102;2023-01-19T01:14:17;1.90;99.90
11093;DHT22;5600;50.864;6.102;2023-01-19T01:17:18;1.90;99.90
11093;DHT22;5600;50.864;6.102;2023-01-19T01:20:26;1.90;99.90
11093;DHT22;5600;50.864;6.102;2023-01-19T01:23:27;1.90;99.90
11093;DHT22;5600;50.864;6.102;2023-01-19T01:26:28;1.90;99.90
11093;DHT22;5600;50.864;6.102;2023-01-19T01:29:28;1.90;99.90
11093;DHT22;5600;50.864;6.102;2023-01-19T01:32:29;1.90;99.90
11093;DHT22;5600;50.864;6.102;2023-01-19T01:35:30;1.90;99.90
11093;DHT22;5600;50.864;6.102;2023-01-19T01:38:33;1.90;99.90
11093;DHT22;5600;50.864;6.102;2023-01-19T01:41:34;1.90;99.90
11093;DHT22;5600;50.864;6.102;2023-01-19T01:44:47;1.90;99.90
11093;DHT22;5600;50.864;6.102;2023-01-19T01:47:50;1.90;99.90
11093;DHT22;5600;50.864;6.102;2023-01-19T01:51:06;1.90;99.90
11093;DHT22;5600;50.864;6.102;2023-01-19T01:54:28;1.90;99.90
11093;DHT22;5600;50.864;6.102;2023-01-19T01:57:31;1.80;99.90
11093;DHT22;5600;50.864;6.102;2023-01-19T02:00:32;1.80;99.90
11093;DHT22;5600;50.864;6.102;2023-01-19T02:03:53;1.80;99.90
11093;DHT22;5600;50.864;6.102;2023-01-19T02:06:55;1.70;99.90
11093;DHT22;5600;50.864;6.102;2023-01-19T02:10:15;1.70;99.90
11093;DHT22;5600;50.864;6.102;2023-01-19T02:13:37;1.70;99.90
11093;DHT22;5600;50.864;6.102;2023-01-19T02:16:39;1.70;99.90
11093;DHT22;5600;50.864;6.102;2023-01-19T02:19:42;1.60;99.90
11093;DHT22;5600;50.864;6.102;2023-01-19T02:22:48;1.70;99.90
11093;DHT22;5600;50.864;6.102;2023-01-19T02:25:49;1.70;99.90
11093;DHT22;5600;50.864;6.102;2023-01-19T02:28:54;1.70;99.90
11093;DHT22;5600;50.864;6.102;2023-01-19T02:31:57;1.70;99.90
11093;DHT22;5600;50.864;6.102;2023-01-19T02:34:59;1.70;99.90
11093;DHT22;5600;50.864;6.102;2023-01-19T02:38:01;1.70;99.90
11093;DHT22;5600;50.864;6.102;2023-01-19T02:41:03;1.60;99.90
11093;DHT22;5600;50.864;6.102;2023-01-19T02:44:07;1.60;99.90
11093;DHT22;5600;50.864;6.102;2023-01-19T02:47:09;1.60;99.90
11093;DHT22;5600;50.864;6.102;2023-01-19T03:04:02;1.60;99.90
11093;DHT22;5600;50.864;6.102;2023-01-19T03:10:39;1.60;99.90
11093;DHT22;5600;50.864;6.102;2023-01-19T03:16:58;1.70;99.90
11093;DHT22;5600;50.864;6.102;2023-01-19T03:20:03;1.70;99.90
11093;DHT22;5600;50.864;6.102;2023-01-19T03:23:09;1.70;99.90
11093;DHT22;5600;50.864;6.102;2023-01-19T03:26:14;1.70;99.90
11093;DHT22;5600;50.864;6.102;2023-01-19T03:29:16;1.70;99.90
11093;DHT22;5600;50.864;6.102;2023-01-19T03:32:24;1.80;99.90
11093;DHT22;5600;50.864;6.102;2023-01-19T03:35:31;1.90;99.90
11093;DHT22;5600;50.864;6.102;2023-01-19T03:38:36;1.90;99.90
11093;DHT22;5600;50.864;6.102;2023-01-19T03:41:38;1.90;99.90
11093;DHT22;5600;50.864;6.102;2023-01-19T03:44:41;2.00;99.90
11093;DHT22;5600;50.864;6.102;2023-01-19T03:47:43;2.00;99.90
11093;DHT22;5600;50.864;6.102;2023-01-19T03:50:44;2.00;99.90
11093;DHT22;5600;50.864;6.102;2023-01-19T03:53:45;2.00;99.90
11093;DHT22;5600;50.864;6.102;2023-01-19T03:56:46;2.00;99.90
11093;DHT22;5600;50.864;6.102;2023-01-19T03:59:47;2.00;99.90
11093;DHT22;5600;50.864;6.102;2023-01-19T04:02:47;2.10;99.90
11093;DHT22;5600;50.864;6.102;2023-01-19T04:05:48;2.10;99.90
11093;DHT22;5600;50.864;6.102;2023-01-19T04:08:50;2.10;99.90
11093;DHT22;5600;50.864;6.102;2023-01-19T04:11:51;2.10;99.90
11093;DHT22;5600;50.864;6.102;2023-01-19T04:14:52;2.10;99.90
11093;DHT22;5600;50.864;6.102;2023-01-19T04:17:53;2.10;99.90
11093;DHT22;5600;50.864;6.102;2023-01-19T04:20:54;2.10;99.90
11093;DHT22;5600;50.864;6.102;2023-01-19T04:23:55;2.20;99.90
11093;DHT22;5600;50.864;6.102;2023-01-19T04:26:55;2.20;99.90
11093;DHT22;5600;50.864;6.102;2023-01-19T04:29:56;2.20;99.90
11093;DHT22;5600;50.864;6.102;2023-01-19T04:33:00;2.20;99.90
11093;DHT22;5600;50.864;6.102;2023-01-19T04:36:02;2.30;99.90
11093;DHT22;5600;50.864;6.102;2023-01-19T04:39:03;2.30;99.90
11093;DHT22;5600;50.864;6.102;2023-01-19T04:42:04;2.30;99.90
11093;DHT22;5600;50.864;6.102;2023-01-19T04:45:06;2.40;99.90
11093;DHT22;5600;50.864;6.102;2023-01-19T04:48:06;2.40;99.90
11093;DHT22;5600;50.864;6.102;2023-01-19T04:51:07;2.40;99.90
11093;DHT22;5600;50.864;6.102;2023-01-19T04:54:08;2.50;99.90
11093;DHT22;5600;50.864;6.102;2023-01-19T04:57:09;2.40;99.90
11093;DHT22;5600;50.864;6.102;2023-01-19T05:00:10;2.50;99.90
11093;DHT22;5600;50.864;6.102;2023-01-19T05:03:11;2.50;99.90
11093;DHT22;5600;50.864;6.102;2023-01-19T05:06:12;2.50;99.90
11093;DHT22;5600;50.864;6.102;2023-01-19T05:09:12;2.50;99.90
11093;DHT22;5600;50.864;6.102;2023-01-19T05:12:15;2.50;99.90
11093;DHT22;5600;50.864;6.102;2023-01-19T05:15:16;2.50;99.90
11093;DHT22;5600;50.864;6.102;2023-01-19T05:18:17;2.50;99.90
11093;DHT22;5600;50.864;6.102;2023-01-19T05:21:17;2.40;99.90
11093;DHT22;5600;50.864;6.102;2023-01-19T05:24:18;2.40;99.90
11093;DHT22;5600;50.864;6.102;2023-01-19T05:27:19;2.30;99.90
11093;DHT22;5600;50.864;6.102;2023-01-19T05:30:20;2.20;99.90
11093;DHT22;5600;50.864;6.102;2023-01-19T05:33:22;2.20;99.90
11093;DHT22;5600;50.864;6.102;2023-01-19T05:36:22;2.20;99.90
11093;DHT22;5600;50.864;6.102;2023-01-19T05:39:23;2.10;99.90
11093;DHT22;5600;50.864;6.102;2023-01-19T05:42:25;2.10;99.90
11093;DHT22;5600;50.864;6.102;2023-01-19T05:45:26;2.10;99.90
11093;DHT22;5600;50.864;6.102;2023-01-19T05:48:30;2.00;99.90
11093;DHT22;5600;50.864;6.102;2023-01-19T05:51:31;1.90;99.90
11093;DHT22;5600;50.864;6.102;2023-01-19T05:54:34;1.80;99.90
11093;DHT22;5600;50.864;6.102;2023-01-19T05:57:35;1.80;99.90
11093;DHT22;5600;50.864;6.102;2023-01-19T06:00:35;1.80;99.90
11093;DHT22;5600;50.864;6.102;2023-01-19T06:03:36;1.80;99.90
11093;DHT22;5600;50.864;6.102;2023-01-19T06:06:38;1.80;99.90
11093;DHT22;5600;50.864;6.102;2023-01-19T06:09:39;1.70;99.90
11093;DHT22;5600;50.864;6.102;2023-01-19T06:12:40;1.70;99.90
11093;DHT22;5600;50.864;6.102;2023-01-19T06:15:41;1.80;99.90
11093;DHT22;5600;50.864;6.102;2023-01-19T06:18:43;1.90;99.90
11093;DHT22;5600;50.864;6.102;2023-01-19T06:21:43;1.80;99.90
11093;DHT22;5600;50.864;6.102;2023-01-19T06:24:49;1.80;99.90
11093;DHT22;5600;50.864;6.102;2023-01-19T06:27:50;1.90;99.90
11093;DHT22;5600;50.864;6.102;2023-01-19T06:30:53;1.80;99.90
11093;DHT22;5600;50.864;6.102;2023-01-19T06:33:53;1.70;99.90
11093;DHT22;5600;50.864;6.102;2023-01-19T06:36:57;1.70;99.90
11093;DHT22;5600;50.864;6.102;2023-01-19T06:39:58;1.60;99.90
11093;DHT22;5600;50.864;6.102;2023-01-19T06:42:59;1.60;99.90
11093;DHT22;5600;50.864;6.102;2023-01-19T06:46:00;1.60;99.90
11093;DHT22;5600;50.864;6.102;2023-01-19T06:49:01;1.70;99.90
11093;DHT22;5600;50.864;6.102;2023-01-19T06:52:02;1.70;99.90
11093;DHT22;5600;50.864;6.102;2023-01-19T06:55:03;1.60;99.90
11093;DHT22;5600;50.864;6.102;2023-01-19T06:58:04;1.50;99.90
11093;DHT22;5600;50.864;6.102;2023-01-19T07:01:06;1.50;99.90
11093;DHT22;5600;50.864;6.102;2023-01-19T07:04:06;1.40;99.90
11093;DHT22;5600;50.864;6.102;2023-01-19T07:07:07;1.30;99.90
11093;DHT22;5600;50.864;6.102;2023-01-19T07:10:08;1.20;99.90
11093;DHT22;5600;50.864;6.102;2023-01-19T07:13:11;1.10;99.90
11093;DHT22;5600;50.864;6.102;2023-01-19T07:16:12;1.20;99.90
11093;DHT22;5600;50.864;6.102;2023-01-19T07:19:13;1.20;99.90
11093;DHT22;5600;50.864;6.102;2023-01-19T07:22:14;1.20;99.90
11093;DHT22;5600;50.864;6.102;2023-01-19T07:25:15;1.10;99.90
11093;DHT22;5600;50.864;6.102;2023-01-19T07:28:16;1.10;99.90
11093;DHT22;5600;50.864;6.102;2023-01-19T07:31:17;1.20;99.90
11093;DHT22;5600;50.864;6.102;2023-01-19T07:34:19;1.20;99.90
11093;DHT22;5600;50.864;6.102;2023-01-19T07:37:19;1.20;99.90
11093;DHT22;5600;50.864;6.102;2023-01-19T07:40:20;1.30;99.90
11093;DHT22;5600;50.864;6.102;2023-01-19T07:43:21;1.20;99.90
11093;DHT22;5600;50.864;6.102;2023-01-19T07:46:21;1.30;99.90
11093;DHT22;5600;50.864;6.102;2023-01-19T07:49:22;1.30;99.90
11093;DHT22;5600;50.864;6.102;2023-01-19T07:52:23;1.30;99.90
11093;DHT22;5600;50.864;6.102;2023-01-19T07:55:24;1.30;99.90
11093;DHT22;5600;50.864;6.102;2023-01-19T07:58:25;1.20;99.90
11093;DHT22;5600;50.864;6.102;2023-01-19T08:01:26;1.30;99.90
11093;DHT22;5600;50.864;6.102;2023-01-19T08:04:27;1.20;99.90
11093;DHT22;5600;50.864;6.102;2023-01-19T08:07:28;1.20;99.90
11093;DHT22;5600;50.864;6.102;2023-01-19T08:10:28;1.40;99.90
11093;DHT22;5600;50.864;6.102;2023-01-19T08:13:29;1.40;99.90
11093;DHT22;5600;50.864;6.102;2023-01-19T08:16:29;1.40;99.90
11093;DHT22;5600;50.864;6.102;2023-01-19T08:19:30;1.40;99.90
11093;DHT22;5600;50.864;6.102;2023-01-19T08:22:31;1.60;99.90
11093;DHT22;5600;50.864;6.102;2023-01-19T08:25:40;1.60;99.90
11093;DHT22;5600;50.864;6.102;2023-01-19T08:28:44;1.60;99.90
11093;DHT22;5600;50.864;6.102;2023-01-19T08:31:45;1.70;99.90
11093;DHT22;5600;50.864;6.102;2023-01-19T08:34:46;1.80;99.90
11093;DHT22;5600;50.864;6.102;2023-01-19T08:37:46;1.80;99.90
11093;DHT22;5600;50.864;6.102;2023-01-19T08:40:47;2.60;99.90
11093;DHT22;5600;50.864;6.102;2023-01-19T08:43:48;1.80;99.90
11093;DHT22;5600;50.864;6.102;2023-01-19T08:46:49;1.80;99.90
11093;DHT22;5600;50.864;6.102;2023-01-19T08:49:50;1.90;99.90
11093;DHT22;5600;50.864;6.102;2023-01-19T08:52:50;1.90;99.90
11093;DHT22;5600;50.864;6.102;2023-01-19T08:55:55;2.00;99.90
11093;DHT22;5600;50.864;6.102;2023-01-19T08:58:56;2.10;99.90
11093;DHT22;5600;50.864;6.102;2023-01-19T09:01:57;2.00;99.90
11093;DHT22;5600;50.864;6.102;2023-01-19T09:04:58;2.00;99.90
11093;DHT22;5600;50.864;6.102;2023-01-19T09:07:58;2.10;99.90
11093;DHT22;5600;50.864;6.102;2023-01-19T09:10:59;2.10;99.90
11093;DHT22;5600;50.864;6.102;2023-01-19T09:14:00;2.10;99.90
11093;DHT22;5600;50.864;6.102;2023-01-19T09:17:01;2.10;99.90
11093;DHT22;5600;50.864;6.102;2023-01-19T09:20:02;2.10;99.90
11093;DHT22;5600;50.864;6.102;2023-01-19T09:23:05;2.20;99.90
11093;DHT22;5600;50.864;6.102;2023-01-19T09:26:05;2.20;99.90
11093;DHT22;5600;50.864;6.102;2023-01-19T09:29:06;2.20;99.90
11093;DHT22;5600;50.864;6.102;2023-01-19T09:32:07;2.30;99.90
11093;DHT22;5600;50.864;6.102;2023-01-19T09:35:10;2.30;99.90
11093;DHT22;5600;50.864;6.102;2023-01-19T09:38:11;3.30;99.90
11093;DHT22;5600;50.864;6.102;2023-01-19T09:41:19;2.40;99.90
11093;DHT22;5600;50.864;6.102;2023-01-19T09:44:27;2.40;99.90
11093;DHT22;5600;50.864;6.102;2023-01-19T09:47:29;2.60;99.90
11093;DHT22;5600;50.864;6.102;2023-01-19T09:50:37;2.30;99.90
11093;DHT22;5600;50.864;6.102;2023-01-19T09:53:59;2.50;99.90
11093;DHT22;5600;50.864;6.102;2023-01-19T09:57:04;2.50;99.90
11093;DHT22;5600;50.864;6.102;2023-01-19T10:00:15;2.60;99.90
11093;DHT22;5600;50.864;6.102;2023-01-19T10:03:16;2.60;99.90
11093;DHT22;5600;50.864;6.102;2023-01-19T10:06:18;3.80;99.90
11093;DHT22;5600;50.864;6.102;2023-01-19T10:09:32;2.70;99.90
11093;DHT22;5600;50.864;6.102;2023-01-19T10:13:13;2.70;99.90
11093;DHT22;5600;50.864;6.102;2023-01-19T10:16:36;2.80;99.90
11093;DHT22;5600;50.864;6.102;2023-01-19T10:19:45;2.90;99.90
11093;DHT22;5600;50.864;6.102;2023-01-19T10:22:48;2.90;99.90
11093;DHT22;5600;50.864;6.102;2023-01-19T10:25:50;3.00;99.90
11093;DHT22;5600;50.864;6.102;2023-01-19T10:28:54;3.00;99.90
11093;DHT22;5600;50.864;6.102;2023-01-19T10:32:21;3.10;99.90
11093;DHT22;5600;50.864;6.102;2023-01-19T10:35:23;3.10;99.90
11093;DHT22;5600;50.864;6.102;2023-01-19T10:38:24;3.20;99.90
11093;DHT22;5600;50.864;6.102;2023-01-19T10:41:40;3.20;99.90
11093;DHT22;5600;50.864;6.102;2023-01-19T10:44:41;3.30;99.90
11093;DHT22;5600;50.864;6.102;2023-01-19T10:47:43;3.30;99.90
11093;DHT22;5600;50.864;6.102;2023-01-19T10:50:45;3.20;99.90
11093;DHT22;5600;50.864;6.102;2023-01-19T10:53:57;3.20;99.90
11093;DHT22;5600;50.864;6.102;2023-01-19T10:57:02;3.20;99.90
11093;DHT22;5600;50.864;6.102;2023-01-19T11:00:05;3.20;99.90
11093;DHT22;5600;50.864;6.102;2023-01-19T11:03:28;3.20;99.90
11093;DHT22;5600;50.864;6.102;2023-01-19T11:06:30;3.20;99.90
11093;DHT22;5600;50.864;6.102;2023-01-19T11:09:31;3.20;99.90
11093;DHT22;5600;50.864;6.102;2023-01-19T11:12:32;3.40;99.90
11093;DHT22;5600;50.864;6.102;2023-01-19T11:15:39;3.50;99.90
11093;DHT22;5600;50.864;6.102;2023-01-19T11:18:41;3.50;99.90
11093;DHT22;5600;50.864;6.102;2023-01-19T11:21:42;3.50;99.90
11093;DHT22;5600;50.864;6.102;2023-01-19T11:24:43;3.50;99.90
11093;DHT22;5600;50.864;6.102;2023-01-19T11:27:48;3.60;99.90
11093;DHT22;5600;50.864;6.102;2023-01-19T11:31:15;3.60;99.90
11093;DHT22;5600;50.864;6.102;2023-01-19T11:34:29;3.60;99.90
11093;DHT22;5600;50.864;6.102;2023-01-19T11:37:31;3.60;99.90
11093;DHT22;5600;50.864;6.102;2023-01-19T11:40:34;3.60;99.90
11093;DHT22;5600;50.864;6.102;2023-01-19T11:43:35;3.50;99.90
11093;DHT22;5600;50.864;6.102;2023-01-19T11:46:38;3.40;99.90
11093;DHT22;5600;50.864;6.102;2023-01-19T11:49:48;3.40;99.90
11093;DHT22;5600;50.864;6.102;2023-01-19T11:53:03;3.40;99.90
11093;DHT22;5600;50.864;6.102;2023-01-19T11:56:13;3.40;99.90
11093;DHT22;5600;50.864;6.102;2023-01-19T11:59:14;3.40;99.90
11093;DHT22;5600;50.864;6.102;2023-01-19T12:02:42;3.40;99.90
11093;DHT22;5600;50.864;6.102;2023-01-19T12:05:50;3.50;99.90
11093;DHT22;5600;50.864;6.102;2023-01-19T12:09:02;3.40;99.90
11093;DHT22;5600;50.864;6.102;2023-01-19T12:12:08;3.40;99.90
11093;DHT22;5600;50.864;6.102;2023-01-19T12:15:31;3.40;99.90
11093;DHT22;5600;50.864;6.102;2023-01-19T12:18:37;3.40;99.90
11093;DHT22;5600;50.864;6.102;2023-01-19T12:21:39;3.40;99.90
11093;DHT22;5600;50.864;6.102;2023-01-19T12:24:48;3.40;99.90
11093;DHT22;5600;50.864;6.102;2023-01-19T12:27:52;3.70;99.90
11093;DHT22;5600;50.864;6.102;2023-01-19T12:30:53;3.50;99.90
11093;DHT22;5600;50.864;6.102;2023-01-19T12:33:54;3.50;99.90
11093;DHT22;5600;50.864;6.102;2023-01-19T12:37:31;3.50;99.90
11093;DHT22;5600;50.864;6.102;2023-01-19T12:40:34;3.50;99.90
11093;DHT22;5600;50.864;6.102;2023-01-19T12:43:34;3.50;99.90
11093;DHT22;5600;50.864;6.102;2023-01-19T12:49:56;3.40;99.90
11093;DHT22;5600;50.864;6.102;2023-01-19T12:53:02;3.50;99.90
11093;DHT22;5600;50.864;6.102;2023-01-19T12:56:05;3.50;99.90
11093;DHT22;5600;50.864;6.102;2023-01-19T12:59:22;3.50;99.90
11093;DHT22;5600;50.864;6.102;2023-01-19T13:02:42;3.50;99.90
11093;DHT22;5600;50.864;6.102;2023-01-19T13:08:58;3.50;99.90
11093;DHT22;5600;50.864;6.102;2023-01-19T13:15:32;3.50;99.90
11093;DHT22;5600;50.864;6.102;2023-01-19T13:18:39;3.60;99.90
11093;DHT22;5600;50.864;6.102;2023-01-19T13:21:43;3.70;99.90
11093;DHT22;5600;50.864;6.102;2023-01-19T13:25:11;3.70;99.90
11093;DHT22;5600;50.864;6.102;2023-01-19T13:28:13;3.70;99.90
11093;DHT22;5600;50.864;6.102;2023-01-19T13:31:16;3.70;99.90
11093;DHT22;5600;50.864;6.102;2023-01-19T13:34:20;3.60;99.90
11093;DHT22;5600;50.864;6.102;2023-01-19T13:37:32;3.60;99.90
11093;DHT22;5600;50.864;6.102;2023-01-19T13:40:36;3.60;99.90
11093;DHT22;5600;50.864;6.102;2023-01-19T13:43:38;3.60;99.90
11093;DHT22;5600;50.864;6.102;2023-01-19T13:46:39;3.60;99.90
11093;DHT22;5600;50.864;6.102;2023-01-19T13:49:42;3.60;99.90
11093;DHT22;5600;50.864;6.102;2023-01-19T13:52:44;3.60;99.90
11093;DHT22;5600;50.864;6.102;2023-01-19T13:55:45;3.60;99.90
11093;DHT22;5600;50.864;6.102;2023-01-19T14:02:10;3.50;99.90
11093;DHT22;5600;50.864;6.102;2023-01-19T14:05:26;3.50;99.90
11093;DHT22;5600;50.864;6.102;2023-01-19T14:08:27;3.50;99.90
11093;DHT22;5600;50.864;6.102;2023-01-19T14:11:28;3.50;99.90
11093;DHT22;5600;50.864;6.102;2023-01-19T14:14:29;3.50;99.90
11093;DHT22;5600;50.864;6.102;2023-01-19T14:17:30;3.50;99.90
11093;DHT22;5600;50.864;6.102;2023-01-19T14:20:31;3.50;99.90
11093;DHT22;5600;50.864;6.102;2023-01-19T14:29:41;3.50;99.90
11093;DHT22;5600;50.864;6.102;2023-01-19T14:32:46;3.60;99.90
11093;DHT22;5600;50.864;6.102;2023-01-19T14:35:47;3.60;99.90
11093;DHT22;5600;50.864;6.102;2023-01-19T14:38:49;3.70;99.90
11093;DHT22;5600;50.864;6.102;2023-01-19T14:41:51;3.70;99.90
11093;DHT22;5600;50.864;6.102;2023-01-19T14:44:54;3.80;99.90
11093;DHT22;5600;50.864;6.102;2023-01-19T14:48:20;3.80;99.90
11093;DHT22;5600;50.864;6.102;2023-01-19T14:51:22;3.80;99.90
11093;DHT22;5600;50.864;6.102;2023-01-19T14:54:39;3.80;99.90
11093;DHT22;5600;50.864;6.102;2023-01-19T14:57:40;3.80;99.90
11093;DHT22;5600;50.864;6.102;2023-01-19T15:00:42;3.70;99.90
11093;DHT22;5600;50.864;6.102;2023-01-19T15:03:43;3.50;99.90
11093;DHT22;5600;50.864;6.102;2023-01-19T15:06:43;3.40;99.90
11093;DHT22;5600;50.864;6.102;2023-01-19T15:09:48;3.20;99.90
11093;DHT22;5600;50.864;6.102;2023-01-19T15:12:50;3.10;99.90
11093;DHT22;5600;50.864;6.102;2023-01-19T15:15:52;2.90;99.90
11093;DHT22;5600;50.864;6.102;2023-01-19T15:18:53;2.80;99.90
11093;DHT22;5600;50.864;6.102;2023-01-19T15:21:54;2.60;99.90
11093;DHT22;5600;50.864;6.102;2023-01-19T15:24:54;2.60;99.90
11093;DHT22;5600;50.864;6.102;2023-01-19T15:27:59;2.60;99.90
11093;DHT22;5600;50.864;6.102;2023-01-19T15:31:00;2.60;99.90
11093;DHT22;5600;50.864;6.102;2023-01-19T15:34:01;2.70;99.90
11093;DHT22;5600;50.864;6.102;2023-01-19T15:37:02;2.70;99.90
11093;DHT22;5600;50.864;6.102;2023-01-19T15:40:03;2.70;99.90
11093;DHT22;5600;50.864;6.102;2023-01-19T15:43:03;2.70;99.90
11093;DHT22;5600;50.864;6.102;2023-01-19T15:46:05;2.60;99.90
11093;DHT22;5600;50.864;6.102;2023-01-19T15:49:06;2.60;99.90
11093;DHT22;5600;50.864;6.102;2023-01-19T15:52:07;2.50;99.90
11093;DHT22;5600;50.864;6.102;2023-01-19T15:55:09;2.50;99.90
11093;DHT22;5600;50.864;6.102;2023-01-19T15:58:10;2.60;99.90
11093;DHT22;5600;50.864;6.102;2023-01-19T16:01:16;2.60;99.90
11093;DHT22;5600;50.864;6.102;2023-01-19T16:04:17;2.70;99.90
11093;DHT22;5600;50.864;6.102;2023-01-19T16:07:17;2.60;99.90
11093;DHT22;5600;50.864;6.102;2023-01-19T16:10:18;3.70;99.90
11093;DHT22;5600;50.864;6.102;2023-01-19T16:13:19;2.60;99.90
11093;DHT22;5600;50.864;6.102;2023-01-19T16:16:22;2.60;99.90
11093;DHT22;5600;50.864;6.102;2023-01-19T16:19:23;2.60;99.90
11093;DHT22;5600;50.864;6.102;2023-01-19T16:22:24;2.60;99.90
11093;DHT22;5600;50.864;6.102;2023-01-19T16:25:25;2.50;99.90
11093;DHT22;5600;50.864;6.102;2023-01-19T16:28:27;2.40;99.90
11093;DHT22;5600;50.864;6.102;2023-01-19T16:31:28;2.40;99.90
11093;DHT22;5600;50.864;6.102;2023-01-19T16:34:29;2.40;99.90
11093;DHT22;5600;50.864;6.102;2023-01-19T16:37:30;2.30;99.90
11093;DHT22;5600;50.864;6.102;2023-01-19T16:40:31;3.10;99.90
11093;DHT22;5600;50.864;6.102;2023-01-19T16:43:31;2.30;99.90
11093;DHT22;5600;50.864;6.102;2023-01-19T16:46:37;2.30;99.90
11093;DHT22;5600;50.864;6.102;2023-01-19T16:49:38;2.50;99.90
11093;DHT22;5600;50.864;6.102;2023-01-19T16:52:39;2.60;99.90
11093;DHT22;5600;50.864;6.102;2023-01-19T16:55:40;2.60;99.90
11093;DHT22;5600;50.864;6.102;2023-01-19T16:58:41;2.70;99.90
11093;DHT22;5600;50.864;6.102;2023-01-19T17:01:43;2.60;99.90
11093;DHT22;5600;50.864;6.102;2023-01-19T17:04:44;2.60;99.90
11093;DHT22;5600;50.864;6.102;2023-01-19T17:07:44;2.70;99.90
11093;DHT22;5600;50.864;6.102;2023-01-19T17:10:46;2.70;99.90
11093;DHT22;5600;50.864;6.102;2023-01-19T17:13:51;2.50;99.90
11093;DHT22;5600;50.864;6.102;2023-01-19T17:16:53;2.50;99.90
11093;DHT22;5600;50.864;6.102;2023-01-19T17:19:54;2.50;99.90
11093;DHT22;5600;50.864;6.102;2023-01-19T17:22:55;2.50;99.90
11093;DHT22;5600;50.864;6.102;2023-01-19T17:25:56;2.60;99.90
11093;DHT22;5600;50.864;6.102;2023-01-19T17:29:05;2.80;99.90
11093;DHT22;5600;50.864;6.102;2023-01-19T17:32:06;2.70;99.90
11093;DHT22;5600;50.864;6.102;2023-01-19T17:35:08;2.50;99.90
11093;DHT22;5600;50.864;6.102;2023-01-19T17:38:09;2.40;99.90
11093;DHT22;5600;50.864;6.102;2023-01-19T17:41:14;2.20;99.90
11093;DHT22;5600;50.864;6.102;2023-01-19T17:44:16;2.00;99.90
11093;DHT22;5600;50.864;6.102;2023-01-19T17:47:17;1.80;99.90
11093;DHT22;5600;50.864;6.102;2023-01-19T17:50:17;1.60;99.90
11093;DHT22;5600;50.864;6.102;2023-01-19T17:53:18;1.50;99.90
11093;DHT22;5600;50.864;6.102;2023-01-19T17:56:21;1.30;99.90
11093;DHT22;5600;50.864;6.102;2023-01-19T17:59:21;1.30;99.90
11093;DHT22;5600;50.864;6.102;2023-01-19T18:02:22;1.20;99.90
11093;DHT22;5600;50.864;6.102;2023-01-19T18:05:23;1.20;99.90
11093;DHT22;5600;50.864;6.102;2023-01-19T18:08:24;1.20;99.90
11093;DHT22;5600;50.864;6.102;2023-01-19T18:11:26;1.20;99.90
11093;DHT22;5600;50.864;6.102;2023-01-19T18:14:26;1.10;99.90
11093;DHT22;5600;50.864;6.102;2023-01-19T18:17:29;1.10;99.90
11093;DHT22;5600;50.864;6.102;2023-01-19T18:20:29;1.10;99.90
11093;DHT22;5600;50.864;6.102;2023-01-19T18:23:31;1.10;99.90
11093;DHT22;5600;50.864;6.102;2023-01-19T18:26:33;1.00;99.90
11093;DHT22;5600;50.864;6.102;2023-01-19T18:29:34;1.00;99.90
11093;DHT22;5600;50.864;6.102;2023-01-19T18:32:34;0.90;99.90
11093;DHT22;5600;50.864;6.102;2023-01-19T18:35:37;0.90;99.90
11093;DHT22;5600;50.864;6.102;2023-01-19T18:38:38;0.90;99.90
11093;DHT22;5600;50.864;6.102;2023-01-19T18:41:39;1.00;99.90
11093;DHT22;5600;50.864;6.102;2023-01-19T18:44:41;1.00;99.90
11093;DHT22;5600;50.864;6.102;2023-01-19T18:47:42;1.00;99.90
11093;DHT22;5600;50.864;6.102;2023-01-19T18:50:42;1.10;99.90
11093;DHT22;5600;50.864;6.102;2023-01-19T18:53:43;1.20;99.90
11093;DHT22;5600;50.864;6.102;2023-01-19T18:56:44;1.20;99.90
11093;DHT22;5600;50.864;6.102;2023-01-19T18:59:45;1.40;99.90
11093;DHT22;5600;50.864;6.102;2023-01-19T19:02:46;1.60;99.90
11093;DHT22;5600;50.864;6.102;2023-01-19T19:05:47;1.80;99.90
11093;DHT22;5600;50.864;6.102;2023-01-19T19:08:51;1.90;99.90
11093;DHT22;5600;50.864;6.102;2023-01-19T19:11:52;1.90;99.90
11093;DHT22;5600;50.864;6.102;2023-01-19T19:14:53;1.90;99.90
11093;DHT22;5600;50.864;6.102;2023-01-19T19:17:54;2.00;99.90
11093;DHT22;5600;50.864;6.102;2023-01-19T19:20:54;2.00;99.90
11093;DHT22;5600;50.864;6.102;2023-01-19T19:23:56;2.10;99.90
11093;DHT22;5600;50.864;6.102;2023-01-19T19:26:57;2.10;99.90
11093;DHT22;5600;50.864;6.102;2023-01-19T19:29:58;2.10;99.90
11093;DHT22;5600;50.864;6.102;2023-01-19T19:32:58;2.10;99.90
11093;DHT22;5600;50.864;6.102;2023-01-19T19:36:00;2.10;99.90
11093;DHT22;5600;50.864;6.102;2023-01-19T19:39:01;2.20;99.90
11093;DHT22;5600;50.864;6.102;2023-01-19T19:42:01;2.20;99.90
11093;DHT22;5600;50.864;6.102;2023-01-19T19:45:02;2.20;99.90
11093;DHT22;5600;50.864;6.102;2023-01-19T19:48:03;2.20;99.90
11093;DHT22;5600;50.864;6.102;2023-01-19T19:51:10;2.10;99.90
11093;DHT22;5600;50.864;6.102;2023-01-19T19:54:11;2.00;99.90
11093;DHT22;5600;50.864;6.102;2023-01-19T19:57:11;1.80;99.90
11093;DHT22;5600;50.864;6.102;2023-01-19T20:00:12;1.80;99.90
11093;DHT22;5600;50.864;6.102;2023-01-19T20:03:13;1.80;99.90
11093;DHT22;5600;50.864;6.102;2023-01-19T20:06:16;1.60;99.90
11093;DHT22;5600;50.864;6.102;2023-01-19T20:09:19;1.50;99.90
11093;DHT22;5600;50.864;6.102;2023-01-19T20:12:20;1.40;99.90
11093;DHT22;5600;50.864;6.102;2023-01-19T20:15:21;1.30;99.90
11093;DHT22;5600;50.864;6.102;2023-01-19T20:18:22;1.20;99.90
11093;DHT22;5600;50.864;6.102;2023-01-19T20:21:28;1.10;99.90
11093;DHT22;5600;50.864;6.102;2023-01-19T20:24:29;0.90;99.90
11093;DHT22;5600;50.864;6.102;2023-01-19T20:27:29;0.80;99.90
11093;DHT22;5600;50.864;6.102;2023-01-19T20:30:30;0.70;99.90
11093;DHT22;5600;50.864;6.102;2023-01-19T20:33:30;0.60;99.90
11093;DHT22;5600;50.864;6.102;2023-01-19T20:36:31;0.50;99.90